Time;durP1;ratioP1;P1;durP2;ratioP2;P2;SDS_P1;SDS_P2;PMS_P1;PMS_P2;Temp;Humidity;BMP_temperature;BMP_pressure;BME280_temperature;BME280_humidity;BME280_pressure;Samples;Min_cycle;Max_cycle;Signal;HPM_P1;HPM_P2
2022/01/19 00:01:04;;;;;;;67.38;22.48;;;;;;;;;;6248057;22;20043;-60
2022/01/19 00:03:30;;;;;;;52.53;20.13;;;;;;;;;;6223859;22;20310;-60
2022/01/19 00:05:56;;;;;;;61.33;20.00;;;;;;;;;;6247752;22;20038;-60
2022/01/19 00:08:22;;;;;;;68.80;23.75;;;;;;;;;;6249531;22;20016;-61
2022/01/19 00:10:50;;;;;;;72.55;23.60;;;;;;;;;;6249976;22;20016;-59
2022/01/19 00:13:16;;;;;;;74.78;23.75;;;;;;;;;;6225782;22;20099;-59
2022/01/19 00:15:43;;;;;;;78.30;26.90;;;;;;;;;;6224659;22;20309;-59
2022/01/19 00:18:09;;;;;;;89.25;29.95;;;;;;;;;;6251637;22;20235;-60
2022/01/19 00:20:35;;;;;;;84.18;28.80;;;;;;;;;;6250227;22;20018;-60
2022/01/19 00:23:03;;;;;;;66.35;23.42;;;;;;;;;;6249052;22;20018;-60
2022/01/19 00:25:29;;;;;;;60.80;24.55;;;;;;;;;;6249218;22;20011;-60
2022/01/19 00:27:55;;;;;;;57.70;19.85;;;;;;;;;;6223855;22;20055;-60
2022/01/19 00:30:21;;;;;;;73.50;23.50;;;;;;;;;;6276903;22;20007;-60
2022/01/19 00:32:47;;;;;;;71.50;24.15;;;;;;;;;;6251317;22;20022;-60
2022/01/19 00:35:14;;;;;;;75.93;25.58;;;;;;;;;;6274564;22;20331;-60
2022/01/19 00:37:41;;;;;;;67.80;25.20;;;;;;;;;;6248666;22;20371;-61
2022/01/19 00:40:08;;;;;;;73.25;26.10;;;;;;;;;;6223859;22;20065;-60
2022/01/19 00:42:34;;;;;;;81.75;28.55;;;;;;;;;;6249499;22;20008;-60
2022/01/19 00:45:00;;;;;;;85.80;28.30;;;;;;;;;;6241628;23;20437;-59
2022/01/19 00:47:26;;;;;;;83.95;26.85;;;;;;;;;;6245857;23;20016;-60
2022/01/19 00:49:54;;;;;;;86.93;28.67;;;;;;;;;;6219360;23;20008;-60
2022/01/19 00:52:20;;;;;;;77.65;25.83;;;;;;;;;;6219413;23;20083;-60
2022/01/19 00:54:46;;;;;;;69.85;25.55;;;;;;;;;;6246347;23;20054;-59
2022/01/19 00:57:12;;;;;;;67.78;22.13;;;;;;;;;;6195000;23;20020;-60
2022/01/19 00:59:38;;;;;;;61.28;21.27;;;;;;;;;;6194109;23;20014;-60
2022/01/19 01:02:04;;;;;;;51.83;20.25;;;;;;;;;;6246730;23;20016;-60
2022/01/19 01:04:32;;;;;;;58.63;23.15;;;;;;;;;;6217577;23;20421;-60
2022/01/19 01:06:58;;;;;;;54.25;22.77;;;;;;;;;;6219418;23;20015;-60
2022/01/19 01:09:24;;;;;;;76.88;26.35;;;;;;;;;;6194226;23;20070;-60
2022/01/19 01:19:58;;;;;;;82.28;30.17;;;;;;;;;;6173303;23;20022;-60
2022/01/19 01:22:24;;;;;;;69.75;25.88;;;;;;;;;;6219330;23;20020;-60
2022/01/19 01:24:50;;;;;;;81.38;26.70;;;;;;;;;;6244537;23;20445;-60
2022/01/19 01:27:16;;;;;;;91.55;29.17;;;;;;;;;;6218461;23;20015;-60
2022/01/19 01:29:42;;;;;;;90.20;30.42;;;;;;;;;;6245738;23;20512;-60
2022/01/19 01:32:09;;;;;;;105.32;32.10;;;;;;;;;;6244767;23;20095;-60
2022/01/19 01:34:35;;;;;;;99.45;34.03;;;;;;;;;;6194425;23;20016;-60
2022/01/19 01:37:01;;;;;;;96.70;32.45;;;;;;;;;;6218153;23;20425;-60
2022/01/19 01:39:27;;;;;;;102.57;32.83;;;;;;;;;;6219213;23;20023;-60
2022/01/19 01:41:53;;;;;;;98.05;31.25;;;;;;;;;;6220149;23;20548;-60
2022/01/19 01:44:19;;;;;;;100.30;33.85;;;;;;;;;;6220909;23;20052;-60
2022/01/19 01:46:49;;;;;;;101.68;31.50;;;;;;;;;;6246752;22;20007;-60
2022/01/19 01:49:24;;;;;;;98.63;29.85;;;;;;;;;;6224837;22;20051;-60
2022/01/19 01:54:35;;;;;;;95.97;28.73;;;;;;;;;;6278105;22;20019;-60
2022/01/19 01:57:01;;;;;;;93.97;25.77;;;;;;;;;;6250199;22;20089;-59
2022/01/19 01:59:27;;;;;;;75.97;23.00;;;;;;;;;;6250236;22;20378;-59
2022/01/19 02:01:53;;;;;;;79.32;24.10;;;;;;;;;;6226260;22;20007;-60
2022/01/19 02:04:23;;;;;;;94.63;27.25;;;;;;;;;;6278233;22;20016;-60
2022/01/19 02:09:37;;;;;;;121.78;28.52;;;;;;;;;;6250636;22;20016;-60
2022/01/19 02:23:57;;;;;;;99.55;23.48;;;;;;;;;;6251501;22;20016;-60
2022/01/19 02:25:59;;;;;;;121.60;27.48;;;;;;;;;;6254988;22;20026;-60
2022/01/19 02:40:12;;;;;;;80.75;21.17;;;;;;;;;;6152302;23;20025;-60
2022/01/19 02:42:52;;;;;;;75.75;20.13;;;;;;;;;;6129480;23;20041;-60
2022/01/19 02:50:31;;;;;;;149.57;18.88;;;;;;;;;;6124094;23;20081;-59
2022/01/19 02:52:57;;;;;;;104.32;19.77;;;;;;;;;;6076105;23;20018;-59
2022/01/19 02:55:23;;;;;;;145.15;22.65;;;;;;;;;;6098443;23;20024;-59
2022/01/19 02:57:50;;;;;;;214.55;23.27;;;;;;;;;;6125835;23;20102;-59
2022/01/19 03:08:47;;;;;;;87.95;19.73;;;;;;;;;;6125030;23;20022;-60
2022/01/19 03:11:14;;;;;;;181.63;23.85;;;;;;;;;;6213770;23;20358;-59
2022/01/19 03:13:40;;;;;;;124.05;22.17;;;;;;;;;;6196712;23;20345;-59
2022/01/19 03:16:06;;;;;;;84.95;20.67;;;;;;;;;;6245050;23;20016;-59
2022/01/19 03:18:33;;;;;;;125.18;21.67;;;;;;;;;;6245842;23;20291;-60
2022/01/19 03:20:59;;;;;;;148.75;23.67;;;;;;;;;;6219894;23;20016;-60
2022/01/19 03:23:25;;;;;;;151.25;21.63;;;;;;;;;;6244997;23;20019;-59
2022/01/19 03:25:52;;;;;;;134.20;22.85;;;;;;;;;;6220724;23;20449;-59
2022/01/19 03:28:18;;;;;;;102.35;20.63;;;;;;;;;;6219628;23;20325;-59
2022/01/19 03:30:45;;;;;;;94.68;22.25;;;;;;;;;;6220646;23;20437;-59
2022/01/19 03:33:11;;;;;;;83.10;21.25;;;;;;;;;;6247781;23;20035;-59
2022/01/19 03:35:38;;;;;;;117.60;23.92;;;;;;;;;;6246162;23;20012;-59
2022/01/19 03:38:08;;;;;;;82.50;22.65;;;;;;;;;;6218430;23;20016;-59
2022/01/19 03:40:35;;;;;;;111.40;23.73;;;;;;;;;;6219445;23;20042;-59
2022/01/19 03:43:01;;;;;;;160.23;25.48;;;;;;;;;;6218304;23;20016;-59
2022/01/19 03:45:27;;;;;;;121.80;25.20;;;;;;;;;;6205260;22;20074;-59
2022/01/19 03:48:07;;;;;;;69.57;21.13;;;;;;;;;;6276634;22;20022;-59
2022/01/19 03:50:33;;;;;;;103.07;22.05;;;;;;;;;;6275792;22;20018;-59
2022/01/19 03:52:59;;;;;;;90.72;23.88;;;;;;;;;;6251683;22;20116;-59
2022/01/19 03:55:26;;;;;;;71.18;23.00;;;;;;;;;;6249204;22;20417;-59
2022/01/19 03:57:52;;;;;;;77.63;21.70;;;;;;;;;;6277795;22;20373;-59
2022/01/19 04:00:20;;;;;;;87.85;24.58;;;;;;;;;;6224346;22;20043;-59
2022/01/19 04:02:48;;;;;;;80.35;23.80;;;;;;;;;;6249761;22;20012;-59
2022/01/19 04:05:40;;;;;;;76.93;25.35;;;;;;;;;;6223506;22;20023;-60
2022/01/19 04:08:00;;;;;;;88.90;23.35;;;;;;;;;;6249257;22;20016;-59
2022/01/19 04:10:26;;;;;;;87.30;24.95;;;;;;;;;;6223862;22;20423;-59
2022/01/19 04:13:08;;;;;;;128.63;28.23;;;;;;;;;;6277268;22;20023;-59
2022/01/19 04:15:34;;;;;;;103.35;26.00;;;;;;;;;;6276316;22;20012;-59
2022/01/19 04:18:00;;;;;;;99.25;26.50;;;;;;;;;;6225427;22;20054;-59
2022/01/19 04:20:26;;;;;;;91.50;25.85;;;;;;;;;;6224417;22;20007;-59
2022/01/19 04:22:53;;;;;;;131.63;27.70;;;;;;;;;;6225256;22;20012;-59
2022/01/19 04:25:19;;;;;;;90.15;25.95;;;;;;;;;;6248820;22;20020;-60
2022/01/19 04:27:45;;;;;;;63.40;21.80;;;;;;;;;;6277128;22;20018;-59
2022/01/19 04:30:13;;;;;;;74.93;24.42;;;;;;;;;;6224364;22;20492;-60
2022/01/19 04:35:27;;;;;;;76.32;24.42;;;;;;;;;;6275794;22;20099;-59
2022/01/19 05:05:26;;;;;;;68.95;23.83;;;;;;;;;;6275308;22;20055;-60
2022/01/19 05:08:09;;;;;;;92.95;24.42;;;;;;;;;;6276976;22;20324;-60
2022/01/19 05:15:49;;;;;;;69.95;22.08;;;;;;;;;;6272997;22;20091;-60
2022/01/19 05:18:16;;;;;;;58.17;22.48;;;;;;;;;;6250362;22;20388;-60
2022/01/19 05:20:43;;;;;;;62.05;22.70;;;;;;;;;;6224606;22;20452;-60
2022/01/19 05:23:09;;;;;;;68.25;25.02;;;;;;;;;;6227689;22;20022;-59
2022/01/19 05:25:35;;;;;;;69.03;24.30;;;;;;;;;;6225194;22;20086;-59
2022/01/19 05:28:01;;;;;;;67.13;22.40;;;;;;;;;;6278955;22;20061;-60
2022/01/19 05:30:27;;;;;;;59.03;23.90;;;;;;;;;;6226455;22;20012;-60
2022/01/19 05:32:53;;;;;;;68.90;24.67;;;;;;;;;;6251891;22;20007;-59
2022/01/19 05:35:19;;;;;;;61.58;22.25;;;;;;;;;;6278048;22;20062;-59
2022/01/19 05:37:45;;;;;;;58.60;23.45;;;;;;;;;;6250716;22;20360;-60
2022/01/19 05:40:13;;;;;;;67.95;23.73;;;;;;;;;;6250757;22;20016;-61
2022/01/19 05:42:39;;;;;;;63.90;24.10;;;;;;;;;;6225284;22;20445;-60
2022/01/19 05:45:06;;;;;;;54.63;23.85;;;;;;;;;;6277481;22;20018;-60
2022/01/19 05:47:32;;;;;;;66.50;24.98;;;;;;;;;;6225246;22;20100;-60
2022/01/19 05:49:58;;;;;;;60.20;23.42;;;;;;;;;;6250435;22;20016;-59
2022/01/19 05:52:24;;;;;;;59.38;24.15;;;;;;;;;;6250731;22;20008;-60
2022/01/19 05:54:50;;;;;;;72.70;25.80;;;;;;;;;;6250519;22;20083;-60
2022/01/19 05:57:16;;;;;;;59.78;23.90;;;;;;;;;;6277514;22;20299;-60
2022/01/19 05:59:42;;;;;;;74.28;25.95;;;;;;;;;;6250110;22;20058;-60
2022/01/19 06:02:08;;;;;;;64.78;24.52;;;;;;;;;;6250109;22;20026;-61
2022/01/19 06:04:34;;;;;;;61.72;25.80;;;;;;;;;;6225072;22;20012;-60
2022/01/19 06:07:03;;;;;;;70.85;27.02;;;;;;;;;;6225208;22;20046;-60
2022/01/19 06:09:37;;;;;;;70.45;25.55;;;;;;;;;;6225257;22;20048;-60
2022/01/19 06:12:04;;;;;;;66.50;24.75;;;;;;;;;;6250405;22;20020;-60
2022/01/19 06:14:31;;;;;;;59.10;22.92;;;;;;;;;;6250377;22;20015;-61
2022/01/19 06:16:57;;;;;;;69.45;25.88;;;;;;;;;;6250358;22;20048;-60
2022/01/19 06:19:23;;;;;;;67.38;26.08;;;;;;;;;;6225076;22;20018;-60
2022/01/19 06:21:50;;;;;;;71.60;26.17;;;;;;;;;;6250417;22;20100;-62
2022/01/19 06:24:16;;;;;;;74.78;26.83;;;;;;;;;;6250383;22;20498;-60
2022/01/19 06:26:42;;;;;;;70.68;26.20;;;;;;;;;;6249897;22;20016;-60
2022/01/19 06:29:08;;;;;;;75.45;29.10;;;;;;;;;;6224792;22;20012;-60
2022/01/19 06:31:34;;;;;;;70.47;26.52;;;;;;;;;;6250203;22;20324;-60
2022/01/19 06:34:00;;;;;;;76.65;26.80;;;;;;;;;;6250269;22;20051;-60
2022/01/19 06:36:26;;;;;;;75.07;26.85;;;;;;;;;;6276881;22;20405;-61
2022/01/19 06:38:52;;;;;;;82.90;30.20;;;;;;;;;;6249808;22;20016;-60
2022/01/19 06:41:18;;;;;;;66.13;26.23;;;;;;;;;;6277280;22;20105;-61
2022/01/19 06:43:44;;;;;;;72.90;27.65;;;;;;;;;;6249680;22;20012;-60
2022/01/19 06:46:10;;;;;;;68.05;26.65;;;;;;;;;;6249824;22;20047;-59
2022/01/19 06:48:36;;;;;;;74.13;27.50;;;;;;;;;;6249951;22;20065;-61
2022/01/19 06:51:03;;;;;;;63.95;26.30;;;;;;;;;;6224361;22;20078;-60
2022/01/19 06:53:29;;;;;;;72.68;29.27;;;;;;;;;;6224834;22;20051;-60
2022/01/19 06:55:57;;;;;;;71.63;26.92;;;;;;;;;;6249597;22;20023;-60
2022/01/19 06:58:24;;;;;;;70.68;27.63;;;;;;;;;;6250133;22;20019;-60
2022/01/19 07:00:50;;;;;;;75.78;27.45;;;;;;;;;;6224627;22;20015;-60
2022/01/19 07:03:16;;;;;;;70.50;27.75;;;;;;;;;;6249984;22;20023;-60
2022/01/19 07:05:42;;;;;;;64.60;23.90;;;;;;;;;;6224290;22;20046;-61
2022/01/19 07:08:08;;;;;;;63.20;25.63;;;;;;;;;;6224740;22;20027;-60
2022/01/19 07:10:34;;;;;;;71.47;26.90;;;;;;;;;;6249626;22;20019;-59
2022/01/19 07:13:00;;;;;;;65.75;26.30;;;;;;;;;;6224411;22;20020;-60
2022/01/19 07:15:27;;;;;;;71.50;28.52;;;;;;;;;;6249720;22;20294;-60
2022/01/19 07:17:53;;;;;;;69.30;26.67;;;;;;;;;;6224235;22;20031;-60
2022/01/19 07:20:19;;;;;;;67.22;26.58;;;;;;;;;;6276905;22;20598;-60
2022/01/19 07:22:46;;;;;;;57.67;24.90;;;;;;;;;;6249700;22;20369;-60
2022/01/19 07:25:12;;;;;;;65.85;26.63;;;;;;;;;;6224368;22;20095;-60
2022/01/19 07:27:38;;;;;;;73.18;25.20;;;;;;;;;;6224563;22;20023;-60
2022/01/19 07:30:05;;;;;;;67.32;26.42;;;;;;;;;;6249366;22;20065;-60
2022/01/19 07:32:34;;;;;;;72.00;28.25;;;;;;;;;;6276766;22;20157;-60
2022/01/19 07:35:00;;;;;;;71.28;26.25;;;;;;;;;;6224069;22;20112;-60
2022/01/19 07:37:26;;;;;;;62.35;25.38;;;;;;;;;;6276547;22;20018;-59
2022/01/19 07:39:53;;;;;;;66.57;25.40;;;;;;;;;;6223893;22;20090;-60
2022/01/19 07:42:19;;;;;;;67.50;26.45;;;;;;;;;;6249549;22;20302;-60
2022/01/19 07:44:45;;;;;;;60.53;27.52;;;;;;;;;;6248837;22;20433;-60
2022/01/19 07:47:11;;;;;;;71.90;28.58;;;;;;;;;;6249625;22;20023;-59
2022/01/19 07:49:37;;;;;;;64.70;27.27;;;;;;;;;;6249355;22;20303;-60
2022/01/19 07:52:03;;;;;;;81.15;30.48;;;;;;;;;;6249170;22;20059;-60
2022/01/19 07:54:30;;;;;;;75.43;25.85;;;;;;;;;;6248707;22;20011;-61
2022/01/19 07:56:56;;;;;;;65.78;26.08;;;;;;;;;;6249427;22;20011;-61
2022/01/19 07:59:22;;;;;;;69.72;27.13;;;;;;;;;;6249425;22;20039;-60
2022/01/19 08:01:48;;;;;;;75.95;28.65;;;;;;;;;;6224109;22;20080;-61
2022/01/19 08:04:14;;;;;;;75.25;27.95;;;;;;;;;;6223934;22;20055;-60
2022/01/19 08:06:40;;;;;;;78.15;30.73;;;;;;;;;;6276040;22;20019;-60
2022/01/19 08:09:07;;;;;;;76.55;31.42;;;;;;;;;;6249121;22;20090;-60
2022/01/19 08:11:33;;;;;;;77.72;28.90;;;;;;;;;;6223992;22;20027;-62
2022/01/19 08:14:00;;;;;;;81.60;30.05;;;;;;;;;;6249251;22;20023;-61
2022/01/19 08:16:26;;;;;;;88.13;29.25;;;;;;;;;;6249252;22;20015;-61
2022/01/19 08:18:52;;;;;;;66.95;26.10;;;;;;;;;;6224031;22;20432;-61
2022/01/19 08:21:18;;;;;;;80.30;29.50;;;;;;;;;;6248566;22;20011;-62
2022/01/19 08:23:44;;;;;;;89.22;29.95;;;;;;;;;;6223951;22;20020;-60
2022/01/19 08:26:13;;;;;;;79.55;28.60;;;;;;;;;;6223946;22;20082;-60
2022/01/19 08:28:39;;;;;;;80.22;30.02;;;;;;;;;;6248721;22;20096;-61
2022/01/19 08:31:05;;;;;;;89.28;30.17;;;;;;;;;;6248330;22;20007;-60
2022/01/19 08:33:31;;;;;;;82.28;30.95;;;;;;;;;;6223783;22;20321;-60
2022/01/19 08:35:57;;;;;;;78.47;27.35;;;;;;;;;;6248582;22;20011;-60
2022/01/19 08:38:23;;;;;;;87.43;29.27;;;;;;;;;;6248931;22;20389;-62
2022/01/19 08:40:50;;;;;;;92.75;32.05;;;;;;;;;;6248759;22;20042;-60
2022/01/19 08:43:16;;;;;;;81.97;28.45;;;;;;;;;;6248691;22;20065;-60
2022/01/19 08:45:42;;;;;;;74.22;27.67;;;;;;;;;;6275550;22;20015;-60
2022/01/19 08:48:08;;;;;;;75.80;30.48;;;;;;;;;;6248860;22;20022;-61
2022/01/19 08:50:35;;;;;;;89.95;32.13;;;;;;;;;;6222843;22;20043;-61
2022/01/19 08:53:01;;;;;;;85.38;32.40;;;;;;;;;;6223485;22;20019;-61
2022/01/19 08:55:27;;;;;;;86.80;32.50;;;;;;;;;;6223376;22;20054;-60
2022/01/19 08:57:54;;;;;;;89.82;33.83;;;;;;;;;;6248722;22;20020;-61
2022/01/19 09:00:20;;;;;;;83.82;34.58;;;;;;;;;;6248437;22;20027;-61
2022/01/19 09:02:46;;;;;;;92.50;33.10;;;;;;;;;;6223055;22;20022;-61
2022/01/19 09:05:12;;;;;;;85.05;30.48;;;;;;;;;;6275772;22;20016;-60
2022/01/19 09:07:39;;;;;;;91.25;33.42;;;;;;;;;;6275930;22;20077;-61
2022/01/19 09:10:06;;;;;;;87.63;31.20;;;;;;;;;;6223277;22;20019;-60
2022/01/19 09:12:32;;;;;;;87.53;33.20;;;;;;;;;;6223658;22;20019;-61
2022/01/19 09:14:58;;;;;;;100.75;35.53;;;;;;;;;;6248570;22;20329;-61
2022/01/19 09:17:25;;;;;;;85.22;32.00;;;;;;;;;;6275839;22;20016;-60
2022/01/19 09:19:51;;;;;;;68.35;27.77;;;;;;;;;;6223876;22;20294;-60
2022/01/19 09:22:17;;;;;;;81.63;30.65;;;;;;;;;;6276585;22;20027;-60
2022/01/19 09:24:43;;;;;;;79.60;27.73;;;;;;;;;;6249287;22;20016;-60
2022/01/19 09:27:10;;;;;;;85.95;31.40;;;;;;;;;;6249534;22;20026;-60
2022/01/19 09:29:42;;;;;;;74.97;29.67;;;;;;;;;;6223762;22;20008;-61
2022/01/19 09:32:10;;;;;;;79.15;29.55;;;;;;;;;;6223815;22;20054;-59
2022/01/19 09:34:36;;;;;;;86.63;34.20;;;;;;;;;;6249365;22;20019;-60
2022/01/19 09:37:02;;;;;;;81.32;32.90;;;;;;;;;;6275745;22;20022;-60
2022/01/19 09:39:28;;;;;;;83.85;33.42;;;;;;;;;;6223907;22;20015;-60
2022/01/19 09:41:55;;;;;;;80.88;31.30;;;;;;;;;;6248607;22;20011;-60
2022/01/19 09:44:23;;;;;;;78.78;32.33;;;;;;;;;;6249858;22;20019;-60
2022/01/19 09:46:49;;;;;;;89.45;34.75;;;;;;;;;;6196358;23;20039;-60
2022/01/19 09:49:17;;;;;;;78.63;32.17;;;;;;;;;;6192998;23;20453;-60
2022/01/19 09:51:44;;;;;;;70.97;26.30;;;;;;;;;;6194009;23;20031;-60
2022/01/19 09:54:14;;;;;;;82.22;31.77;;;;;;;;;;6194966;23;20012;-60
2022/01/19 09:56:41;;;;;;;85.57;33.17;;;;;;;;;;6194081;23;20070;-60
2022/01/19 09:59:08;;;;;;;74.43;28.42;;;;;;;;;;6219648;23;20016;-60
2022/01/19 10:01:34;;;;;;;82.10;32.72;;;;;;;;;;6194801;23;20417;-60
2022/01/19 10:04:16;;;;;;;75.38;30.08;;;;;;;;;;6249018;23;20016;-60
2022/01/19 10:06:45;;;;;;;71.07;28.48;;;;;;;;;;6247984;23;20479;-60
2022/01/19 10:09:11;;;;;;;79.43;32.25;;;;;;;;;;6195967;23;20009;-60
2022/01/19 10:17:00;;;;;;;82.55;33.83;;;;;;;;;;6220853;23;20018;-60
2022/01/19 10:19:34;;;;;;;84.25;34.30;;;;;;;;;;6221359;23;20325;-60
2022/01/19 10:22:03;;;;;;;97.38;36.78;;;;;;;;;;6196221;23;20019;-60
2022/01/19 10:24:50;;;;;;;88.38;36.58;;;;;;;;;;6247824;23;20495;-59
2022/01/19 10:27:28;;;;;;;84.93;33.05;;;;;;;;;;6172125;23;20012;-60
2022/01/19 10:29:56;;;;;;;86.65;36.53;;;;;;;;;;6221797;23;20013;-60
2022/01/19 10:32:23;;;;;;;85.10;35.85;;;;;;;;;;6195601;23;20050;-60
2022/01/19 10:34:50;;;;;;;90.65;35.55;;;;;;;;;;6196118;23;20024;-60
2022/01/19 10:37:21;;;;;;;85.60;35.67;;;;;;;;;;6221134;23;20024;-60
2022/01/19 10:39:51;;;;;;;83.35;33.17;;;;;;;;;;6221073;23;20309;-59
2022/01/19 10:42:18;;;;;;;88.65;38.65;;;;;;;;;;6195484;23;20326;-60
2022/01/19 10:44:46;;;;;;;50.17;24.90;;;;;;;;;;6198567;22;20023;-60
2022/01/19 10:47:12;;;;;;;83.22;37.25;;;;;;;;;;6250961;22;20443;-60
2022/01/19 10:49:53;;;;;;;89.20;36.67;;;;;;;;;;6226011;22;20008;-60
2022/01/19 10:52:39;;;;;;;75.85;36.60;;;;;;;;;;6251139;22;20328;-60
2022/01/19 10:55:26;;;;;;;80.22;34.03;;;;;;;;;;6252033;22;20057;-60
2022/01/19 10:57:52;;;;;;;61.17;26.48;;;;;;;;;;6277110;22;20023;-60
2022/01/19 11:00:18;;;;;;;80.45;32.45;;;;;;;;;;6251022;22;20457;-60
2022/01/19 11:02:45;;;;;;;83.05;33.55;;;;;;;;;;6250624;22;20016;-60
2022/01/19 11:05:11;;;;;;;84.07;34.92;;;;;;;;;;6226656;22;20492;-60
2022/01/19 11:07:39;;;;;;;70.25;32.15;;;;;;;;;;6225579;22;20309;-60
2022/01/19 11:10:17;;;;;;;82.03;29.85;;;;;;;;;;6250631;22;20038;-60
2022/01/19 11:12:48;;;;;;;79.10;34.35;;;;;;;;;;6278964;22;20019;-60
2022/01/19 11:15:17;;;;;;;64.95;27.63;;;;;;;;;;6226633;22;20054;-60
2022/01/19 11:17:43;;;;;;;80.90;31.63;;;;;;;;;;6224742;22;20023;-60
2022/01/19 11:20:11;;;;;;;80.45;34.08;;;;;;;;;;6250691;22;20016;-60
2022/01/19 11:23:05;;;;;;;81.57;33.85;;;5.20;99.90;;;;;;6250562;22;20065;-59
2022/01/19 11:25:45;;;;;;;91.90;38.47;;;;;;;;;;6252165;22;20042;-60
2022/01/19 11:28:23;;;;;;;83.05;36.08;;;;;;;;;;6225315;22;20433;-60
2022/01/19 11:30:49;;;;;;;89.07;36.17;;;;;;;;;;6277374;22;20356;-60
2022/01/19 11:33:15;;;;;;;80.63;32.35;;;;;;;;;;6252084;22;20015;-60
2022/01/19 11:35:42;;;;;;;85.45;37.33;;;;;;;;;;6277661;22;20020;-60
2022/01/19 11:38:26;;;;;;;97.18;39.38;;;;;;;;;;6225756;22;20023;-60
2022/01/19 11:40:53;;;;;;;81.97;33.33;;;;;;;;;;6251321;22;20317;-60
2022/01/19 11:43:23;;;;;;;93.32;37.38;;;;;;;;;;6249678;22;20015;-62
2022/01/19 11:45:49;;;;;;;88.75;36.67;;;;;;;;;;6249504;22;20018;-60
2022/01/19 11:48:18;;;;;;;67.72;29.50;;;;;;;;;;6225357;22;20440;-60
2022/01/19 11:50:45;;;;;;;68.15;28.85;;;;;;;;;;6249571;22;20022;-59
2022/01/19 11:53:12;;;;;;;91.18;38.00;;;;;;;;;;6249749;22;20500;-60
2022/01/19 11:55:41;;;;;;;95.32;37.55;;;;;;;;;;6277162;22;20441;-60
2022/01/19 11:58:21;;;;;;;84.18;38.15;;;;;;;;;;6278501;22;20410;-60
2022/01/19 12:00:51;;;;;;;91.13;38.22;;;;;;;;;;6250758;22;20023;-60
2022/01/19 12:03:21;;;;;;;88.10;39.88;;;;;;;;;;6225533;22;20026;-60
2022/01/19 12:05:47;;;;;;;93.65;38.70;;;;;;;;;;6250030;22;20015;-61
2022/01/19 12:08:20;;;;;;;84.90;35.78;;;;;;;;;;6249622;22;20042;-60
2022/01/19 12:10:48;;;;;;;79.75;35.17;;;;;;;;;;6249410;22;20463;-60
2022/01/19 12:13:43;;;;;;;89.05;39.47;;;;;;;;;;6225396;22;20447;-60
2022/01/19 12:16:55;;;;;;;84.40;37.67;;;5.30;99.90;;;;;;6250964;22;20015;-60
2022/01/19 12:19:27;;;;;;;94.25;38.55;;;;;;;;;;6075351;23;20062;-60
2022/01/19 12:22:11;;;;;;;77.10;35.40;;;;;;;;;;6098675;23;20100;-60
2022/01/19 12:24:41;;;;;;;74.53;32.33;;;;;;;;;;6099361;23;20013;-60
2022/01/19 12:27:07;;;;;;;93.72;38.53;;;;;;;;;;6074815;23;20479;-60
2022/01/19 12:29:33;;;;;;;85.57;38.38;;;;;;;;;;6074532;23;20028;-60
2022/01/19 12:32:04;;;;;;;74.00;29.40;;;;;;;;;;6075498;23;20057;-60
2022/01/19 12:34:49;;;;;;;;;;;5.90;99.90;;;;;;6100524;23;20421;-60
2022/01/19 12:37:27;;;;;;;86.55;34.25;;;;;;;;;;6099200;23;19957;-60
2022/01/19 12:39:54;;;;;;;84.88;37.75;;;;;;;;;;6099807;23;20503;-60
2022/01/19 12:42:26;;;;;;;73.28;32.72;;;;;;;;;;6075605;23;20051;-60
2022/01/19 12:44:56;;;;;;;72.88;30.52;;;;;;;;;;6076589;23;20026;-60
2022/01/19 12:47:24;;;;;;;86.70;35.83;;;;;;;;;;6075929;23;20033;-60
2022/01/19 12:49:51;;;;;;;83.93;37.78;;;;;;;;;;6143848;22;20429;-60
2022/01/19 12:52:18;;;;;;;88.45;37.63;;;;;;;;;;6225971;22;20011;-60
2022/01/19 12:54:44;;;;;;;88.10;38.15;;;;;;;;;;6224282;22;20376;-60
2022/01/19 12:57:15;;;;;;;66.38;27.73;;;;;;;;;;6249808;22;20016;-60
2022/01/19 12:59:41;;;;;;;80.10;34.03;;;;;;;;;;6251111;22;20012;-60
2022/01/19 13:02:08;;;;;;;70.72;31.52;;;;;;;;;;6224012;22;20027;-60
2022/01/19 13:04:35;;;;;;;80.18;36.75;;;;;;;;;;6249900;22;20011;-60
2022/01/19 13:07:18;;;;;;;84.43;35.22;;;;;;;;;;6224878;22;20417;-60
2022/01/19 13:10:18;;;;;;;80.30;35.58;;;;;;;;;;6249535;22;20022;-60
2022/01/19 13:12:55;;;;;;;63.05;28.52;;;;;;;;;;6277650;22;20306;-60
2022/01/19 13:15:22;;;;;;;76.68;32.30;;;;;;;;;;6224546;22;20090;-60
2022/01/19 13:17:49;;;;;;;68.45;30.58;;;;;;;;;;6224878;22;20019;-60
2022/01/19 13:20:16;;;;;;;84.53;35.78;;;;;;;;;;6224194;22;20023;-60
2022/01/19 13:22:51;;;;;;;69.82;29.00;;;;;;;;;;6224820;22;20015;-60
2022/01/19 13:25:28;;;;;;;65.78;27.65;;;;;;;;;;6224043;22;20099;-60
2022/01/19 13:27:56;;;;;;;71.53;28.63;;;;;;;;;;6224975;22;20015;-60
2022/01/19 13:30:26;;;;;;;66.10;27.35;;;;;;;;;;6224296;22;20022;-60
2022/01/19 13:32:53;;;;;;;63.08;26.85;;;;;;;;;;6250198;22;20433;-60
2022/01/19 13:35:19;;;;;;;50.15;21.27;;;;;;;;;;6225266;22;20023;-60
2022/01/19 13:37:48;;;;;;;46.28;19.75;;;;;;;;;;6252027;22;20012;-60
2022/01/19 13:40:16;;;;;;;50.05;23.77;;;;;;;;;;6252053;22;20019;-60
2022/01/19 13:42:45;;;;;;;45.70;20.63;;;;;;;;;;6226280;22;20034;-60
2022/01/19 13:45:18;;;;;;;41.92;17.13;;;;;;;;;;6279538;22;20408;-60
2022/01/19 13:47:55;;;;;;;61.58;26.13;;;;;;;;;;6252032;22;20028;-60
2022/01/19 13:50:21;;;;;;;53.13;22.77;;;;;;;;;;6226215;22;20455;-60
2022/01/19 13:52:47;;;;;;;50.13;21.98;;;;;;;;;;6227292;22;20054;-59
2022/01/19 13:55:21;;;;;;;33.97;15.77;;;;;;;;;;6251885;22;20320;-60
2022/01/19 13:57:47;;;;;;;52.22;20.80;;;;;;;;;;6226305;22;20012;-60
2022/01/19 14:00:17;;;;;;;43.75;19.15;;;;;;;;;;6251863;22;20037;-60
2022/01/19 14:02:56;;;;;;;48.30;20.67;;;;;;;;;;6226300;22;20012;-60
2022/01/19 14:05:34;;;;;;;54.17;23.80;;;;;;;;;;6225783;22;20023;-60
2022/01/19 14:08:00;;;;;;;57.80;23.98;;;;;;;;;;6250415;22;20011;-60
2022/01/19 14:10:26;;;;;;;59.78;23.17;;;;;;;;;;6250741;22;20008;-60
2022/01/19 14:12:52;;;;;;;70.75;27.98;;;;;;;;;;6251613;22;20432;-60
2022/01/19 14:15:26;;;;;;;63.95;28.85;;;;;;;;;;6277370;22;20072;-60
2022/01/19 14:17:53;;;;;;;55.75;22.50;;;;;;;;;;6251239;22;20027;-60
2022/01/19 14:20:21;;;;;;;48.97;21.05;;;;;;;;;;6251900;22;20532;-60
2022/01/19 14:22:48;;;;;;;51.45;20.42;;;;;;;;;;6251613;22;20065;-60
2022/01/19 14:25:17;;;;;;;57.15;22.30;;;;;;;;;;6250748;22;20015;-62
2022/01/19 14:27:52;;;;;;;53.40;22.93;;;;;;;;;;6250177;22;20081;-62
2022/01/19 14:30:25;;;;;;;47.78;20.90;;;;;;;;;;6250927;22;20429;-60
2022/01/19 14:32:55;;;;;;;42.03;18.20;;;;;;;;;;6249941;22;20017;-61
2022/01/19 14:35:38;;;;;;;55.42;22.88;;;;;;;;;;6225221;22;20012;-59
2022/01/19 14:38:05;;;;;;;42.75;17.65;;;;;;;;;;6225331;22;20129;-60
2022/01/19 14:40:32;;;;;;;49.03;19.33;;;;;;;;;;6225790;22;20012;-60
2022/01/19 14:42:58;;;;;;;65.13;22.52;;;;;;;;;;6226842;22;20018;-60
2022/01/19 14:45:28;;;;;;;65.50;24.52;;;;;;;;;;6250316;22;20058;-60
2022/01/19 14:47:55;;;;;;;57.67;22.13;;;;;;;;;;6225330;22;20061;-60
2022/01/19 14:50:32;;;;;;;49.55;19.90;;;;;;;;;;6225897;22;20377;-60
2022/01/19 14:52:58;;;;;;;39.10;16.63;;;;;;;;;;6251620;22;20077;-60
2022/01/19 14:55:29;;;;;;;61.90;19.08;;;;;;;;;;6250998;22;20007;-60
2022/01/19 14:57:56;;;;;;;62.08;22.20;;;;;;;;;;6226973;22;20103;-60
2022/01/19 15:00:24;;;;;;;53.67;21.30;;;;;;;;;;6226811;22;20014;-60
2022/01/19 15:02:57;;;;;;;59.92;21.25;;;;;;;;;;6226126;22;20026;-60
2022/01/19 15:05:23;;;;;;;65.53;26.48;;;;;;;;;;6250151;22;20023;-61
2022/01/19 15:07:49;;;;;;;64.90;26.83;;;;;;;;;;6225054;22;20015;-61
2022/01/19 15:10:15;;;;;;;49.50;19.67;;;;;;;;;;6249502;22;20073;-60
2022/01/19 15:12:42;;;;;;;55.92;22.83;;;;;;;;;;6250165;22;20059;-60
2022/01/19 15:15:09;;;;;;;33.90;14.20;;;;;;;;;;6224812;22;20015;-60
2022/01/19 15:17:39;;;;;;;28.75;11.55;;;;;;;;;;6225036;22;20012;-60
2022/01/19 15:20:06;;;;;;;42.83;15.98;;;;;;;;;;6250505;22;20437;-60
2022/01/19 15:22:32;;;;;;;38.10;14.77;;;;;;;;;;6225638;22;20428;-60
2022/01/19 15:24:58;;;;;;;36.30;15.57;;;;;;;;;;6225177;22;20051;-60
2022/01/19 15:27:25;;;;;;;45.85;16.50;;;;;;;;;;6277595;22;20012;-60
2022/01/19 15:29:51;;;;;;;39.72;17.13;;;;;;;;;;6250795;22;20058;-60
2022/01/19 15:32:17;;;;;;;46.03;15.35;;;;;;;;;;6225284;22;20070;-60
2022/01/19 15:34:44;;;;;;;33.90;13.10;;;;;;;;;;6225229;22;20301;-60
2022/01/19 15:37:10;;;;;;;34.10;13.02;;;;;;;;;;6224941;22;20130;-60
2022/01/19 15:39:38;;;;;;;39.92;13.68;;;;;;;;;;6250723;22;20094;-60
2022/01/19 15:42:04;;;;;;;35.95;13.63;;;;;;;;;;6250213;22;20437;-60
2022/01/19 15:44:30;;;;;;;37.15;13.88;;;;;;;;;;6250457;22;20080;-60
2022/01/19 15:46:56;;;;;;;25.85;10.40;;;;;;;;;;6224489;22;20023;-60
2022/01/19 15:49:22;;;;;;;38.78;13.73;;;;;;;;;;6277168;22;20091;-60
2022/01/19 15:51:48;;;;;;;36.03;12.50;;;;;;;;;;6277745;22;20324;-60
2022/01/19 15:54:16;;;;;;;38.63;13.55;;;;;;;;;;6276877;22;20034;-59